Time;durP1;ratioP1;P1;durP2;ratioP2;P2;SDS_P1;SDS_P2;PMS_P1;PMS_P2;Temp;Humidity;BMP_temperature;BMP_pressure;BME280_temperature;BME280_humidity;BME280_pressure;Samples;Min_cycle;Max_cycle;Signal;HPM_P1;HPM_P2
2022/10/19 00:00:08;;;;;;;8.23;6.00;;;;;;;9.44;48.21;101903.81;5165158;27;20912;-58
2022/10/19 00:02:35;;;;;;;9.77;6.33;;;;;;;9.37;48.44;101900.03;5160371;27;20925;-58
2022/10/19 00:13:03;;;;;;;10.40;6.55;;;;;;;9.30;48.32;101877.72;5086856;27;20430;-59
2022/10/19 00:16:42;;;;;;;10.95;6.25;;;;;;;9.29;49.28;101883.97;5084939;27;20404;-59
2022/10/19 00:19:12;;;;;;;9.15;6.50;;;;;;;9.25;48.79;101882.56;5027980;28;20408;-58
2022/10/19 00:21:38;;;;;;;10.18;6.28;;;;;;;9.26;48.94;101871.03;5027020;28;20379;-59
2022/10/19 00:24:29;;;;;;;10.23;6.03;;;;;;;9.23;48.99;101876.56;5090651;27;20411;-59
2022/10/19 00:26:55;;;;;;;9.18;5.70;;;;;;;9.21;48.76;101860.81;5037661;28;20408;-57
2022/10/19 00:31:19;;;;;;;7.68;5.38;;;;;;;9.19;49.09;101866.25;5065815;27;20408;-59
2022/10/19 00:36:21;;;;;;;10.70;5.72;;;;;;;9.16;48.95;101860.38;5080612;27;20403;-58
2022/10/19 00:39:56;;;;;;;9.60;5.97;;;;;;;9.14;48.74;101851.75;5074993;27;20397;-58
2022/10/19 00:42:22;;;;;;;11.52;6.22;;;;;;;9.13;49.63;101856.22;5036731;28;20398;-58
2022/10/19 00:44:47;;;;;;;11.07;6.23;;;;;;;9.09;49.12;101851.31;5044338;28;20392;-58
2022/10/19 00:47:13;;;;;;;8.77;5.63;;;;;;;9.06;49.32;101849.75;5026795;28;20410;-58
2022/10/19 00:49:43;;;;;;;8.88;5.60;;;;;;;9.05;49.55;101848.06;5026857;28;20380;-56
2022/10/19 00:52:13;;;;;;;10.20;6.03;;;;;;;9.04;49.38;101840.28;5046444;28;20772;-58
2022/10/19 00:54:40;;;;;;;9.32;6.03;;;;;;;9.00;49.87;101837.06;5046441;28;20384;-59
2022/10/19 00:58:01;;;;;;;9.75;5.80;;;;;;;8.99;49.79;101843.31;5071436;27;20408;-59
2022/10/19 01:00:27;;;;;;;9.80;5.93;;;;;;;9.03;49.41;101834.16;5026033;28;20469;-58
2022/10/19 01:03:38;;;;;;;10.87;6.13;;;;;;;8.95;49.77;101828.69;5117395;27;852166;-59
2022/10/19 01:06:05;;;;;;;10.85;6.28;;;;;;;8.94;49.81;101821.72;5148524;27;20412;-58
2022/10/19 01:08:31;;;;;;;10.93;6.10;;;;;;;8.94;49.95;101821.72;5148286;27;20859;-58
2022/10/19 01:11:21;;;;;;;14.20;6.53;;;;;;;8.88;49.76;101820.44;5148464;27;20385;-59
2022/10/19 01:14:08;;;;;;;10.60;6.70;;;;;;;8.88;49.47;101807.22;5148208;27;20911;-58
2022/10/19 01:19:34;;;;;;;9.55;6.50;;;;;;;8.90;49.83;101813.22;5085142;27;20787;-59
2022/10/19 01:24:32;;;;;;;11.02;7.07;;;;;;;8.90;50.16;101797.34;5067517;27;20412;-58
2022/10/19 01:27:17;;;;;;;11.15;6.55;;;;;;;8.88;49.77;101794.00;5037437;28;20449;-59
2022/10/19 01:30:30;;;;;;;10.88;6.55;;;;;;;8.86;50.43;101789.81;5030397;28;20837;-58
2022/10/19 01:33:24;;;;;;;11.47;6.97;;;;;;;8.87;50.46;101783.56;5041307;28;20398;-57
2022/10/19 01:36:16;;;;;;;10.85;6.35;;;;;;;8.87;50.22;101780.91;5068621;27;20402;-59
2022/10/19 01:38:50;;;;;;;13.13;7.03;;;;;;;8.88;49.93;101785.25;5022276;28;20408;-58
2022/10/19 01:42:49;;;;;;;16.90;8.02;;;;;;;8.86;50.21;101776.59;5060068;27;20950;-58
2022/10/19 01:45:38;;;;;;;18.90;10.43;;;;;;;8.86;50.61;101785.38;5027049;28;20395;-57
2022/10/19 01:48:18;;;;;;;14.48;7.72;;;;;;;8.85;50.28;101780.22;5027134;28;20873;-57
2022/10/19 01:51:05;;;;;;;11.43;7.30;;;;;;;8.85;50.13;101788.97;5013429;28;20402;-58
2022/10/19 01:53:34;;;;;;;12.10;7.77;;;;;;;8.84;50.08;101781.16;5026373;28;20415;-59
2022/10/19 01:56:03;;;;;;;12.30;7.57;;;;;;;8.80;50.48;101781.47;5026630;28;20489;-58
2022/10/19 01:59:40;;;;;;;14.75;8.30;;;;;;;8.77;50.01;101786.16;5088215;27;20391;-58
2022/10/19 02:04:32;;;;;;;12.75;7.95;;;;;;;8.78;50.53;101793.94;5090303;27;20391;-58
2022/10/19 02:06:58;;;;;;;39.88;18.27;;;;;;;8.72;50.49;101793.66;5046939;28;20468;-58
2022/10/19 02:09:23;;;;;;;58.33;27.15;;;;;;;8.70;50.29;101785.03;5046246;28;20479;-59
2022/10/19 02:11:55;;;;;;;44.27;22.53;;;;;;;8.72;50.37;101778.63;5035326;28;20507;-58
2022/10/19 02:14:26;;;;;;;56.90;28.27;;;;;;;8.71;50.38;101778.75;5040934;28;20380;-59
2022/10/19 02:18:54;;;;;;;17.13;10.18;;;;;;;8.66;50.47;101773.88;5084534;27;20404;-57
2022/10/19 02:21:20;;;;;;;16.15;9.63;;;;;;;8.66;50.63;101771.22;5046550;28;20616;-58
2022/10/19 02:24:59;;;;;;;13.15;8.65;;;;;;;8.67;50.51;101767.59;5090440;27;20403;-57
2022/10/19 02:28:21;;;;;;;13.85;8.98;;;;;;;8.67;50.75;101767.59;5081759;27;20412;-60
2022/10/19 02:32:46;;;;;;;16.30;9.02;;;;;;;8.66;50.99;101750.09;5078039;27;20763;-59
2022/10/19 02:35:14;;;;;;;16.80;9.15;;;;;;;8.63;51.08;101747.69;5024972;28;20924;-58
2022/10/19 02:37:40;;;;;;;15.05;8.88;;;;;;;8.65;51.19;101758.13;5024827;28;20387;-59
2022/10/19 02:40:06;;;;;;;14.80;9.95;;;;;;;8.68;50.89;101760.50;5024383;28;20398;-62
2022/10/19 02:42:51;;;;;;;13.70;9.00;;;;;;;8.69;51.02;101752.44;5025895;28;20383;-58
2022/10/19 02:45:28;;;;;;;13.83;9.80;;;;;;;8.68;51.28;101757.84;5026875;28;20379;-59
2022/10/19 02:47:58;;;;;;;16.52;14.80;;;;;;;8.66;51.14;101749.22;5026631;28;20387;-58
2022/10/19 02:50:24;;;;;;;20.50;13.20;;;;;;;8.68;51.65;101748.13;5026248;28;20387;-58
2022/10/19 02:52:50;;;;;;;17.60;12.82;;;;;;;8.69;51.41;101747.16;5026386;28;20380;-58
2022/10/19 02:55:16;;;;;;;14.93;10.98;;;;;;;8.70;51.19;101750.66;5026548;28;20398;-58
2022/10/19 02:57:41;;;;;;;19.17;12.80;;;;;;;8.70;51.70;101754.13;5026361;28;20392;-58
2022/10/19 03:00:07;;;;;;;15.10;9.10;;;;;;;8.66;51.36;101744.78;5026037;28;20474;-58
2022/10/19 03:02:34;;;;;;;15.68;8.95;;;;;;;8.65;51.42;101745.75;5026482;28;20882;-58
2022/10/19 03:04:59;;;;;;;14.48;9.00;;;;;;;8.65;51.49;101747.56;5026223;28;20774;-58
2022/10/19 03:07:25;;;;;;;15.97;9.37;;;;;;;8.64;51.25;101741.41;5026304;28;20890;-58
2022/10/19 03:11:59;;;;;;;17.40;11.52;;;;;;;8.65;51.21;101740.47;5066859;27;20405;-58
2022/10/19 03:14:24;;;;;;;14.50;10.40;;;;;;;8.60;51.10;101740.84;5026908;28;20412;-59
2022/10/19 03:17:14;;;;;;;16.90;10.75;;;;;;;8.60;51.43;101734.72;5066716;27;20401;-60
2022/10/19 03:19:39;;;;;;;15.82;12.73;;;;;;;8.60;51.37;101729.44;5046816;28;20900;-58
2022/10/19 03:22:05;;;;;;;15.52;11.07;;;;;;;8.61;51.79;101731.97;5046298;28;20378;-59
2022/10/19 03:24:31;;;;;;;16.43;10.37;;;;;;;8.60;51.29;101727.63;5040679;28;20881;-58
2022/10/19 03:26:56;;;;;;;14.47;10.17;;;;;;;8.60;51.62;101725.00;5038945;28;20381;-58
2022/10/19 03:29:22;;;;;;;16.57;10.30;;;;;;;8.57;51.35;101722.63;5046250;28;20399;-58
2022/10/19 03:31:47;;;;;;;19.63;11.20;;;;;;;8.58;51.65;101729.56;5046708;28;20377;-58
2022/10/19 03:34:13;;;;;;;19.35;10.70;;;;;;;8.57;51.50;101738.50;5046430;28;20394;-58
2022/10/19 03:36:39;;;;;;;18.10;10.33;;;;;;;8.57;51.48;101727.91;5046527;28;20405;-58
2022/10/19 03:40:38;;;;;;;22.00;11.70;;;;;;;8.59;51.84;101733.06;5084652;27;21618;-58
2022/10/19 03:43:03;;;;;;;23.93;12.40;;;;;;;8.59;51.39;101735.72;5046641;28;20507;-60
2022/10/19 03:45:29;;;;;;;19.40;11.43;;;;;;;8.57;51.28;101733.19;5046969;28;20487;-58
2022/10/19 03:47:54;;;;;;;19.25;11.15;;;;;;;8.56;51.66;101736.81;5042648;28;20480;-58
2022/10/19 03:50:20;;;;;;;24.50;11.30;;;;;;;8.53;51.69;101726.47;5032486;28;20755;-62
2022/10/19 03:52:54;;;;;;;25.73;13.57;;;;;;;8.50;51.87;101725.91;5073969;27;20928;-58
2022/10/19 03:55:19;;;;;;;21.42;15.20;;;;;;;8.49;51.72;101735.66;5030783;28;20401;-57
2022/10/19 03:57:44;;;;;;;20.33;13.52;;;;;;;8.44;51.66;101716.72;5036924;28;20379;-57
2022/10/19 04:00:11;;;;;;;17.70;10.80;;;;;;;8.46;51.94;101713.94;5026781;28;20758;-58
2022/10/19 04:02:36;;;;;;;18.73;11.55;;;;;;;8.44;52.54;101716.72;5032261;28;20449;-59
2022/10/19 04:07:09;;;;;;;16.92;12.57;;;;;;;8.45;52.48;101710.47;5064519;27;20776;-57
2022/10/19 04:09:35;;;;;;;18.77;10.02;;;;;;;8.43;52.58;101707.13;5042145;28;20405;-59
2022/10/19 04:12:00;;;;;;;17.57;10.10;;;;;;;8.43;52.87;101701.84;5040301;28;20424;-57
2022/10/19 04:14:26;;;;;;;18.23;10.40;;;;;;;8.45;52.84;101688.50;5041902;28;20842;-59
2022/10/19 04:16:51;;;;;;;16.80;8.75;;;;;;;8.53;52.96;101688.66;5042923;28;20880;-59
2022/10/19 04:19:17;;;;;;;13.33;8.37;;;;;;;8.57;52.34;101683.00;5038125;28;20457;-59
2022/10/19 04:21:43;;;;;;;10.73;7.93;;;;;;;8.61;53.11;101676.47;5026676;28;20387;-59
2022/10/19 04:24:12;;;;;;;13.25;8.27;;;;;;;8.64;52.55;101680.63;5033083;28;20499;-58
2022/10/19 04:26:40;;;;;;;16.08;9.10;;;;;;;8.67;52.81;101682.19;5026299;28;20849;-57
2022/10/19 04:29:06;;;;;;;25.20;10.48;;;;;;;8.65;52.43;101673.56;5032503;28;20407;-57
2022/10/19 04:31:32;;;;;;;17.67;9.63;;;;;;;8.62;52.67;101679.94;5035319;28;20408;-58
2022/10/19 04:33:58;;;;;;;19.40;9.50;;;;;;;8.57;52.17;101672.41;5039388;28;20423;-59
2022/10/19 04:36:23;;;;;;;21.07;9.87;;;;;;;8.60;52.21;101676.59;5037056;28;20787;-55
2022/10/19 04:38:49;;;;;;;17.38;9.60;;;;;;;8.59;52.10;101661.72;5042119;28;20949;-59
2022/10/19 04:41:17;;;;;;;16.90;9.70;;;;;;;8.60;52.63;101658.09;5042148;28;20378;-58
2022/10/19 04:43:44;;;;;;;20.15;10.32;;;;;;;8.56;52.46;101661.97;5032268;28;20845;-59
2022/10/19 04:46:17;;;;;;;19.48;10.50;;;;;;;8.56;52.59;101662.81;5035474;28;20449;-58
2022/10/19 04:48:44;;;;;;;20.73;10.55;;;;;;;8.54;52.25;101659.47;5025979;28;20383;-59
2022/10/19 04:51:10;;;;;;;23.77;10.48;;;;;;;8.59;52.62;101665.19;5021930;28;20407;-58
2022/10/19 04:53:38;;;;;;;30.08;12.45;;;;;;;8.58;52.85;101652.94;5024593;28;20394;-60
2022/10/19 04:56:10;;;;;;;25.50;12.50;;;;;;;8.63;52.59;101649.91;5025708;28;20391;-58
2022/10/19 04:58:35;;;;;;;25.77;12.65;;;;;;;8.68;52.44;101642.41;5025470;28;20429;-62
2022/10/19 05:01:28;;;;;;;25.10;12.27;;;;;;;8.78;52.42;101640.59;5032895;28;20386;-59
2022/10/19 05:03:56;;;;;;;20.95;11.25;;;;;;;8.88;52.70;101650.41;5026842;28;20432;-58
2022/10/19 05:06:21;;;;;;;23.17;11.90;;;;;;;9.02;52.30;101652.66;5024996;28;20434;-59
2022/10/19 05:08:49;;;;;;;27.40;13.20;;;;;;;9.11;51.91;101649.19;5024800;28;20387;-58
2022/10/19 05:12:53;;;;;;;23.55;11.95;;;;;;;9.41;51.36;101646.53;5086910;27;20914;-58
2022/10/19 05:15:18;;;;;;;17.45;8.82;;;;;;;9.55;51.22;101654.91;5034131;28;20400;-58
2022/10/19 05:17:44;;;;;;;16.88;10.40;;;;;;;9.75;51.01;101653.06;5045417;28;20381;-59
2022/10/19 05:20:10;;;;;;;18.90;11.00;;;;;;;9.92;50.89;101653.31;5036624;28;20383;-59
2022/10/19 05:22:37;;;;;;;15.52;7.22;;;;;;;10.04;49.95;101648.69;5044073;28;20883;-60
2022/10/19 05:25:04;;;;;;;10.85;6.57;;;;;;;10.24;49.67;101642.34;5046347;28;20389;-58
2022/10/19 05:27:29;;;;;;;10.13;6.88;;;;;;;10.44;49.37;101642.31;5033258;28;20390;-59
2022/10/19 05:29:55;;;;;;;13.85;7.82;;;;;;;10.61;49.22;101638.88;5046580;28;20385;-59
2022/10/19 05:32:20;;;;;;;14.83;7.60;;;;;;;10.80;48.76;101637.94;5032316;28;20456;-59
2022/10/19 05:36:36;;;;;;;15.13;9.10;;;;;;;11.09;47.83;101629.81;5086580;27;20395;-58
2022/10/19 05:41:04;;;;;;;15.60;7.95;;;;;;;11.35;47.61;101629.03;5076163;27;20401;-58
2022/10/19 05:43:30;;;;;;;15.82;7.22;;;;;;;11.52;47.11;101632.66;5041097;28;20497;-59
2022/10/19 05:45:55;;;;;;;20.95;7.68;;;;;;;11.66;46.80;101625.97;5045724;28;20378;-58
2022/10/19 05:50:54;;;;;;;14.13;7.20;;;;;;;11.90;45.84;101635.09;5102903;27;20410;-59
2022/10/19 05:53:19;;;;;;;12.10;6.88;;;;;;;11.92;45.68;101631.34;5075994;28;20446;-57
2022/10/19 05:55:45;;;;;;;15.82;8.25;;;;;;;12.00;45.62;101639.34;5069353;28;20483;-58
2022/10/19 05:58:10;;;;;;;17.58;7.40;;;;;;;12.14;45.45;101631.81;5086897;28;20382;-57
2022/10/19 06:00:36;;;;;;;16.40;7.70;;;;;;;12.40;44.99;101635.22;5072188;28;20398;-59
2022/10/19 06:03:01;;;;;;;14.43;7.03;;;;;;;12.55;44.48;101630.16;5086899;28;20813;-58
2022/10/19 06:05:27;;;;;;;15.03;8.10;;;;;;;12.69;44.16;101618.06;5086636;28;20378;-59
2022/10/19 06:07:52;;;;;;;16.07;7.40;;;;;;;12.85;43.71;101619.94;5077957;28;20482;-59
2022/10/19 06:12:11;;;;;;;14.55;7.85;;;;;;;13.04;43.58;101626.81;5065267;27;20418;-58
2022/10/19 06:14:36;;;;;;;11.73;7.45;;;;;;;13.06;43.42;101618.66;5033706;28;20411;-58
2022/10/19 06:19:13;;;;;;;19.92;10.18;;;;;;;13.31;42.93;101619.56;5078616;27;20400;-59
2022/10/19 06:21:38;;;;;;;17.35;9.48;;;;;;;13.55;42.60;101622.19;5051307;28;20396;-58
2022/10/19 06:24:04;;;;;;;17.30;10.02;;;;;;;13.75;42.60;101621.84;5046541;28;20390;-58
2022/10/19 06:26:32;;;;;;;21.65;9.38;;;;;;;13.83;42.02;101629.84;5042940;28;20412;-58
2022/10/19 06:28:59;;;;;;;16.27;8.80;;;;;;;13.81;41.90;101618.53;5046246;28;20435;-59
2022/10/19 06:31:26;;;;;;;19.35;10.10;;;;;;;13.93;41.92;101627.00;5046203;28;20443;-58
2022/10/19 06:33:51;;;;;;;19.00;10.20;;;;;;;14.09;41.81;101629.63;5042602;28;20418;-55
2022/10/19 06:36:21;;;;;;;18.27;8.63;;;;;;;14.36;41.42;101622.19;5045009;28;20421;-58
2022/10/19 06:38:47;;;;;;;17.80;8.85;;;;;;;14.39;40.89;101619.19;5045582;28;20791;-58
2022/10/19 06:41:13;;;;;;;19.90;8.93;;;;;;;14.47;40.97;101616.47;5045964;28;20451;-58
2022/10/19 06:43:39;;;;;;;18.57;9.57;;;;;;;14.80;40.72;101623.53;5046372;28;20392;-60
2022/10/19 06:46:11;;;;;;;15.13;8.85;;;;;;;14.89;40.32;101615.31;5042277;28;20391;-59
2022/10/19 06:48:37;;;;;;;14.85;8.90;;;;;;;15.03;40.45;101619.03;5046097;28;20385;-58
2022/10/19 06:51:06;;;;;;;16.95;9.15;;;;;;;15.19;40.13;101611.94;5045759;28;20448;-59
2022/10/19 06:53:33;;;;;;;14.95;8.88;;;;;;;15.26;39.91;101628.91;5045524;28;20380;-58
2022/10/19 06:56:00;;;;;;;18.45;8.27;;;;;;;15.31;40.14;101607.03;5045840;28;20385;-59
2022/10/19 06:58:26;;;;;;;18.08;10.23;;;;;;;15.44;40.29;101605.38;5045713;28;20417;-58
2022/10/19 07:00:58;;;;;;;16.97;12.00;;;;;;;15.58;40.72;101600.28;5045896;28;20431;-60
2022/10/19 07:05:01;;;;;;;15.35;9.82;;;;;;;16.02;40.92;101603.00;5083143;27;20770;-58
2022/10/19 07:07:27;;;;;;;13.57;8.65;;;;;;;16.12;40.93;101597.38;5040143;28;20913;-58
2022/10/19 07:11:15;;;;;;;12.70;8.25;;;;;;;16.39;40.74;101595.06;5083623;27;20400;-59
2022/10/19 07:13:40;;;;;;;13.07;8.07;;;;;;;16.63;40.32;101599.25;5037263;28;20411;-58
2022/10/19 07:16:10;;;;;;;15.30;8.00;;;;;;;16.73;40.06;101594.44;5039237;28;20588;-60
2022/10/19 07:19:45;;;;;;;13.60;8.50;;;;;;;16.89;39.29;101593.41;5097039;27;20490;-57
2022/10/19 07:22:10;;;;;;;13.40;8.70;;;;;;;16.86;39.34;101595.63;5053752;28;20816;-60
2022/10/19 07:24:36;;;;;;;18.33;9.07;;;;;;;16.92;39.21;101593.00;5050663;28;20975;-59
2022/10/19 07:27:01;;;;;;;19.30;8.87;;;;;;;17.08;38.96;101588.44;5046094;28;20876;-57
2022/10/19 07:29:27;;;;;;;15.87;9.27;;;;;;;17.27;38.46;101586.94;5052478;28;20379;-58
2022/10/19 07:33:26;;;;;;;19.15;9.30;;;;;;;17.39;37.96;101582.72;5073823;27;20405;-58
2022/10/19 07:35:57;;;;;;;13.30;8.55;;;;;;;17.53;37.99;101584.47;5026160;28;20406;-58
2022/10/19 07:38:23;;;;;;;19.50;9.43;;;;;;;17.69;37.65;101588.72;5026032;28;20383;-58
2022/10/19 07:43:17;;;;;;;13.48;8.43;;;;;;;17.73;37.80;101573.88;5082575;27;20415;-58
2022/10/19 07:45:59;;;;;;;14.63;8.30;;;;;;;17.92;37.39;101567.03;5082234;27;20998;-62
2022/10/19 07:48:25;;;;;;;14.60;7.72;;;;;;;17.81;37.30;101554.16;5043490;28;20400;-59
2022/10/19 07:50:51;;;;;;;12.68;7.22;;;;;;;17.65;37.84;101568.69;5035767;28;20879;-59
2022/10/19 07:55:02;;;;;;;16.38;8.27;;;;;;;17.93;37.83;101559.81;5083005;27;20398;-58
2022/10/19 07:57:28;;;;;;;16.43;7.53;;;;;;;17.82;38.07;101557.66;5066572;28;20411;-59
2022/10/19 07:59:53;;;;;;;18.73;9.57;;;;;;;17.89;37.63;101550.50;5066451;28;20474;-59
2022/10/19 08:02:19;;;;;;;17.07;9.73;;;;;;;18.00;37.67;101546.44;5051945;28;20396;-58
2022/10/19 08:04:44;;;;;;;17.90;9.15;;;;;;;18.13;37.57;101546.50;5055092;28;20958;-59
2022/10/19 08:07:10;;;;;;;10.40;8.00;;;;;;;18.16;37.29;101543.41;5056609;28;20389;-59
2022/10/19 08:09:36;;;;;;;11.97;7.60;;;;;;;18.20;37.36;101541.97;5043631;28;20385;-59
2022/10/19 08:12:03;;;;;;;11.63;7.50;;;;;;;18.15;37.48;101544.47;5047975;28;20383;-59
2022/10/19 08:14:28;;;;;;;15.70;8.38;;;;;;;18.12;37.91;101545.66;5059728;28;20793;-62
2022/10/19 08:16:54;;;;;;;17.73;8.77;;;;;;;18.33;37.36;101527.81;5062562;28;20481;-62
2022/10/19 08:19:21;;;;;;;12.23;8.38;;;;;;;18.49;37.29;101524.75;5053416;28;20431;-59
2022/10/19 08:21:47;;;;;;;13.73;8.38;;;;;;;18.66;37.22;101524.38;5046050;28;20374;-59
2022/10/19 08:24:15;;;;;;;18.48;9.27;;;;;;;18.72;36.89;101519.00;5043443;28;20451;-59
2022/10/19 08:26:41;;;;;;;15.88;9.43;;;;;;;18.77;37.06;101515.72;5045554;28;20385;-60
2022/10/19 08:31:35;;;;;;;17.05;9.98;;;;;;;19.01;36.53;101508.09;5084234;27;20416;-58
2022/10/19 08:34:01;;;;;;;23.57;10.33;;;;;;;19.09;36.32;101507.91;5024567;28;20401;-59
2022/10/19 08:36:29;;;;;;;19.73;9.43;;;;;;;19.22;36.25;101504.38;5026714;28;20468;-58
2022/10/19 08:38:56;;;;;;;19.48;9.90;;;;;;;19.36;36.04;101506.03;5034063;28;20908;-57
2022/10/19 08:41:29;;;;;;;18.65;9.30;;;;;;;19.31;36.17;101505.81;5027068;28;20410;-61
2022/10/19 08:44:10;;;;;;;11.38;4.90;;;;;;;19.49;34.87;101500.63;5023739;28;20383;-58
2022/10/19 08:46:45;;;;;;;7.80;3.92;;;;;;;19.74;33.70;101502.66;5012133;28;20393;-59
2022/10/19 08:50:36;;;;;;;10.18;3.35;;;;;;;20.07;32.37;101493.63;5065851;27;20415;-59
2022/10/19 08:53:11;;;;;;;7.70;3.38;;;;;;;20.32;31.99;101501.78;5024312;28;20407;-59
2022/10/19 08:55:59;;;;;;;6.68;3.35;;;;;;;20.49;31.39;101493.19;5025713;28;20453;-59
2022/10/19 08:58:39;;;;;;;9.63;3.40;;;;;;;20.67;31.16;101493.34;5013806;28;20395;-60
2022/10/19 09:01:15;;;;;;;9.27;3.03;;;;;;;20.80;30.77;101495.91;5025678;28;20475;-59
2022/10/19 09:03:58;;;;;;;7.75;3.30;;;;;;;20.87;30.79;101482.41;5026203;28;20445;-58
2022/10/19 09:06:33;;;;;;;7.97;3.67;;;;;;;21.06;30.57;101485.13;5026417;28;20474;-59
2022/10/19 09:08:59;;;;;;;7.15;3.58;;;;;;;21.22;30.75;101478.38;5026205;28;20407;-60
2022/10/19 09:11:31;;;;;;;5.95;3.45;;;;;;;21.35;30.46;101473.66;5026342;28;20397;-61
2022/10/19 09:14:23;;;;;;;6.50;3.38;;;;;;;21.50;30.53;101476.03;5026630;28;20391;-59
2022/10/19 09:18:52;;;;;;;5.10;3.38;;;;;;;21.71;29.66;101468.53;5081060;27;20413;-58
2022/10/19 09:21:26;;;;;;;6.27;3.50;;;;;;;21.79;29.23;101473.63;5046698;28;20776;-59
2022/10/19 09:24:21;;;;;;;6.20;3.63;;;;;;;21.89;29.30;101473.91;5032293;28;20460;-59
2022/10/19 09:26:56;;;;;;;5.07;3.30;;;;;;;22.02;28.85;101462.13;5046386;28;20401;-59
2022/10/19 09:29:30;;;;;;;5.93;3.65;;;;;;;22.16;28.53;101465.44;5032143;28;20396;-60
2022/10/19 09:31:59;;;;;;;7.70;3.20;;;;;;;22.24;28.35;101448.13;5046278;28;20382;-63
2022/10/19 09:34:35;;;;;;;7.22;3.35;;;;;;;22.32;27.82;101451.31;5031732;28;20382;-63
2022/10/19 09:37:01;;;;;;;10.52;3.50;;;;;;;22.39;27.67;101447.72;5046478;28;20483;-59
2022/10/19 09:40:33;;;;;;;9.82;3.22;;;;;;;22.47;27.38;101450.91;5083478;27;20407;-59
2022/10/19 09:43:07;;;;;;;10.50;3.77;;;;;;;22.50;27.16;101452.31;5044870;28;20402;-60
2022/10/19 09:45:46;;;;;;;8.30;3.22;;;;;;;22.58;27.49;101441.19;5044890;28;20384;-59
2022/10/19 09:48:30;;;;;;;7.00;3.33;;;;;;;22.69;27.01;101439.56;5032318;28;20395;-59
2022/10/19 09:52:58;;;;;;;11.13;3.70;;;;;;;22.81;26.36;101437.66;5112756;27;845114;-59
2022/10/19 09:55:44;;;;;;;5.93;3.38;;;;;;;22.81;26.11;101431.44;5147660;27;20393;-60
2022/10/19 09:58:12;;;;;;;4.90;2.80;;;;;;;22.84;25.93;101422.88;5148483;27;20373;-58
2022/10/19 10:00:42;;;;;;;6.85;3.10;;;;;;;22.91;26.15;101420.88;5147591;27;20412;-59
2022/10/19 10:03:42;;;;;;;6.93;3.37;;;;;;;22.98;26.06;101418.06;5147041;27;20366;-58
2022/10/19 10:06:12;;;;;;;7.47;3.50;;;;;;;23.06;25.93;101409.63;5135598;27;20417;-58
2022/10/19 10:08:45;;;;;;;7.45;3.40;;;;;;;23.11;25.30;101404.31;5147160;27;20893;-59
2022/10/19 10:11:14;;;;;;;7.10;3.38;;;;;;;23.13;25.17;101395.97;5147151;27;20388;-58
2022/10/19 10:13:42;;;;;;;8.15;3.20;;;;;;;23.19;25.24;101403.13;5146510;27;20397;-58
2022/10/19 10:16:12;;;;;;;5.43;3.13;;;;;;;23.18;24.85;101394.19;5139115;27;20377;-59
2022/10/19 10:19:06;;;;;;;9.23;3.58;;;;;;;23.28;24.71;101402.53;5147446;27;20366;-58
2022/10/19 10:21:47;;;;;;;6.22;3.20;;;;;;;23.32;24.55;101396.63;5139526;27;20393;-57
2022/10/19 10:25:48;;;;;;;6.80;3.50;;;;;;;23.32;24.88;101375.00;5079771;27;20783;-59
2022/10/19 10:30:36;;;;;;;6.40;3.53;;;;;;;23.45;24.38;101383.66;5074428;27;20765;-60
2022/10/19 10:33:03;;;;;;;5.63;2.97;;;;;;;23.42;24.07;101377.91;5017685;28;20407;-59
2022/10/19 10:35:34;;;;;;;11.60;3.70;;;;;;;23.45;24.01;101374.75;5026606;28;20388;-59
2022/10/19 10:38:15;;;;;;;6.22;3.10;;;;;;;23.52;23.33;101378.13;5026551;28;20421;-61
2022/10/19 10:40:50;;;;;;;9.68;2.75;;;;;;;23.53;22.56;101363.53;5026371;28;20912;-59
2022/10/19 10:43:19;;;;;;;5.50;2.35;;;;;;;23.56;21.80;101370.34;5017623;28;20521;-61
2022/10/19 10:45:48;;;;;;;4.57;2.40;;;;;;;23.57;21.59;101358.44;5026377;28;20391;-58
2022/10/19 10:48:22;;;;;;;6.13;2.40;;;;;;;23.64;21.55;101357.25;5024608;28;20394;-58
2022/10/19 10:50:47;;;;;;;5.22;2.22;;;;;;;23.69;21.59;101350.28;5015322;28;20975;-58
2022/10/19 10:53:39;;;;;;;4.53;2.07;;;;;;;23.69;21.05;101350.28;5012003;28;20397;-59
2022/10/19 10:56:19;;;;;;;8.02;2.50;;;;;;;23.69;21.06;101334.06;5026560;28;20992;-59
2022/10/19 10:58:53;;;;;;;9.60;2.53;;;;;;;23.72;21.04;101333.59;5025956;28;20391;-60
2022/10/19 11:01:21;;;;;;;8.32;2.60;;;;;;;23.69;21.06;101337.56;5025249;28;20422;-58
2022/10/19 11:03:59;;;;;;;10.10;2.80;;;;;;;23.73;20.84;101335.22;5025104;28;20445;-60
2022/10/19 11:06:24;;;;;;;5.40;2.40;;;;;;;23.72;21.15;101326.28;5026005;28;20379;-63
2022/10/19 11:11:46;;;;;;;6.20;2.67;;;;;;;23.76;20.83;101332.03;5076491;27;20412;-59
2022/10/19 11:14:24;;;;;;;4.93;2.20;;;;;;;23.72;20.69;101326.28;5026378;28;20403;-61
2022/10/19 11:16:53;;;;;;;7.45;2.50;;;;;;;23.74;20.88;101321.44;5026372;28;20472;-59
2022/10/19 11:19:22;;;;;;;12.17;2.57;;;;;;;23.80;20.95;101325.06;5026640;28;20383;-63
2022/10/19 11:22:16;;;;;;;8.60;2.37;;;;;;;23.79;20.96;101323.41;5021811;28;20390;-59
2022/10/19 11:24:49;;;;;;;11.80;2.72;;;;;;;23.75;20.76;101322.25;5003211;28;20463;-59
2022/10/19 11:27:57;;;;;;;6.23;2.40;;;;;;;23.76;20.62;101313.88;5025494;28;20387;-59
2022/10/19 11:30:24;;;;;;;6.05;2.60;;;;;;;23.79;20.50;101318.81;5025260;28;20430;-59
2022/10/19 11:33:14;;;;;;;5.30;2.55;;;;;;;23.78;20.85;101316.34;5022374;28;20389;-59
2022/10/19 11:36:05;;;;;;;6.05;2.58;;;;;;;23.73;20.62;101302.72;5024949;28;20383;-63
2022/10/19 11:39:03;;;;;;;7.55;2.60;;;;;;;23.74;20.27;101307.09;5026416;28;20440;-59
2022/10/19 11:41:31;;;;;;;7.13;2.35;;;;;;;23.72;20.45;101292.97;5025423;28;20893;-59
2022/10/19 11:44:15;;;;;;;5.30;2.60;;;;;;;23.72;20.33;101280.25;5025270;28;20838;-59
2022/10/19 11:49:41;;;;;;;7.45;3.05;;;;;;;23.75;19.86;101287.91;5087665;27;20944;-60
2022/10/19 11:52:19;;;;;;;7.68;2.65;;;;;;;23.71;19.40;101283.19;5044462;28;20405;-59
2022/10/19 11:54:56;;;;;;;7.38;2.67;;;;;;;23.71;19.41;101283.19;5046284;28;20424;-59
2022/10/19 11:57:26;;;;;;;10.03;2.80;;;;;;;23.72;19.54;101277.53;5030744;28;20390;-60
2022/10/19 12:00:10;;;;;;;7.18;2.67;;;;;;;23.74;19.91;101277.31;5026726;28;20395;-60
2022/10/19 12:03:34;;;;;;;6.50;2.60;;;;;;;23.78;20.20;101271.13;5031290;28;20416;-59
2022/10/19 12:06:34;;;;;;;7.88;3.10;;;;;;;23.81;20.12;101264.47;4992928;28;20495;-60
2022/10/19 12:10:47;;;;;;;6.07;2.63;;;;;;;23.81;19.84;101261.75;5067230;27;20896;-58
2022/10/19 12:13:22;;;;;;;4.07;2.63;;;;;;;23.88;19.69;101267.00;5023619;28;20435;-58
2022/10/19 12:15:52;;;;;;;8.37;3.47;;;;;;;23.85;19.22;101262.91;5024883;28;20478;-57
2022/10/19 12:18:50;;;;;;;13.88;5.35;;;;;;;23.83;19.37;101259.63;5025454;28;20406;-59
2022/10/19 12:21:28;;;;;;;5.93;2.60;;;;;;;23.85;18.81;101257.50;5024963;28;20387;-58
2022/10/19 12:23:56;;;;;;;5.47;2.53;;;;;;;23.85;18.83;101246.66;5025292;28;20399;-58
2022/10/19 12:26:22;;;;;;;7.03;2.40;;;;;;;23.84;18.48;101250.41;5025720;28;20900;-59
2022/10/19 12:30:12;;;;;;;5.82;2.67;;;;;;;23.90;18.12;101249.44;5063288;27;20410;-59
2022/10/19 12:32:51;;;;;;;4.93;2.60;;;;;;;23.87;18.13;101235.59;5020774;28;20403;-58
2022/10/19 12:35:38;;;;;;;7.00;2.80;;;;;;;23.92;18.03;101235.66;5025909;28;20387;-59
2022/10/19 12:38:15;;;;;;;5.95;3.10;;;;;;;23.96;18.32;101228.69;5025558;28;20388;-58
2022/10/19 12:40:49;;;;;;;6.00;2.80;;;;;;;23.99;18.43;101220.88;5023638;28;20526;-58
2022/10/19 12:43:26;;;;;;;7.63;2.57;;;;;;;24.01;18.62;101226.06;5026839;28;20383;-59
2022/10/19 12:46:17;;;;;;;6.95;2.88;;;;;;;24.00;18.54;101225.25;5024255;28;20447;-59
2022/10/19 12:51:12;;;;;;;6.68;2.83;;;;;;;23.99;17.97;101226.31;5072725;27;20416;-59
2022/10/19 12:53:47;;;;;;;6.10;2.60;;;;;;;24.00;18.05;101221.69;5024145;28;20786;-59
2022/10/19 12:56:25;;;;;;;8.27;2.47;;;;;;;24.03;17.97;101227.44;5020875;28;20486;-58
2022/10/19 12:58:58;;;;;;;8.90;3.33;;;;;;;24.05;18.15;101224.50;5025520;28;20411;-57
2022/10/19 13:01:40;;;;;;;4.80;2.60;;;;;;;24.06;17.89;101226.16;5025533;28;20414;-61
2022/10/19 13:04:13;;;;;;;7.18;2.83;;;;;;;24.01;18.01;101226.88;5024335;28;20391;-58